createdAt,value
2023-03-11T00:00:24.646Z,94938.88
2023-03-11T00:01:26.592Z,94952.41
2023-03-11T00:02:28.474Z,94960.75
2023-03-11T00:03:30.810Z,94967.31
2023-03-11T00:04:32.713Z,94986.06
2023-03-11T00:05:36.057Z,94980.97
2023-03-11T00:06:37.831Z,95015.13
2023-03-11T00:07:40.525Z,95075.47
2023-03-11T00:08:42.435Z,95083.94
2023-03-11T00:09:44.229Z,95065.03
2023-03-11T00:10:46.976Z,95083.00
2023-03-11T00:11:48.830Z,95081.31
2023-03-11T00:12:50.587Z,95107.72
2023-03-11T00:13:52.446Z,95104.00
2023-03-11T00:14:54.252Z,95100.19
2023-03-11T00:15:56.905Z,95112.81
2023-03-11T00:16:59.433Z,95110.44
2023-03-11T00:18:01.380Z,95126.91
2023-03-11T00:19:03.203Z,95129.06
2023-03-11T00:20:07.252Z,95134.00
2023-03-11T00:21:15.257Z,95131.97
2023-03-11T00:22:17.030Z,95146.97
2023-03-11T00:23:18.832Z,95151.28
2023-03-11T00:24:20.718Z,95148.56
2023-03-11T00:25:24.261Z,95167.75
2023-03-11T00:26:26.107Z,95153.50
2023-03-11T00:27:27.880Z,95149.22
2023-03-11T00:28:30.079Z,95146.84
2023-03-11T00:29:32.338Z,95129.59
2023-03-11T00:30:34.221Z,95137.81
2023-03-11T00:31:36.080Z,95152.69
2023-03-11T00:32:37.996Z,95147.16
2023-03-11T00:33:39.897Z,95138.91
2023-03-11T00:34:41.727Z,95138.13
2023-03-11T00:35:44.076Z,95149.84
2023-03-11T00:36:45.896Z,95115.47
2023-03-11T00:37:48.758Z,95137.66
2023-03-11T00:38:51.187Z,95141.16
2023-03-11T00:39:52.984Z,95150.94
2023-03-11T00:40:54.859Z,95165.03
2023-03-11T00:41:57.132Z,95141.03
2023-03-11T00:42:59.354Z,95139.81
2023-03-11T00:44:01.428Z,95105.34
2023-03-11T00:45:03.208Z,95119.06
2023-03-11T00:46:06.454Z,95139.78
2023-03-11T00:47:09.073Z,95164.13
2023-03-11T00:48:11.671Z,95167.94
2023-03-11T00:49:13.485Z,95143.84
2023-03-11T00:50:20.542Z,95141.03
2023-03-11T00:51:22.584Z,95160.84
2023-03-11T00:52:24.356Z,95158.91
2023-03-11T00:53:26.371Z,95161.28
2023-03-11T00:54:28.375Z,95176.19
2023-03-11T00:55:31.399Z,95187.31
2023-03-11T00:56:33.177Z,95164.00
2023-03-11T00:57:34.936Z,95184.94
2023-03-11T00:58:36.756Z,95198.66
2023-03-11T00:59:38.564Z,95176.91
2023-03-11T01:00:40.515Z,95197.44
2023-03-11T01:01:42.434Z,95182.25
2023-03-11T01:02:44.321Z,95162.41
2023-03-11T01:03:46.348Z,95181.63
2023-03-11T01:04:48.266Z,95190.38
2023-03-11T01:05:50.197Z,95193.19
2023-03-11T01:06:52.043Z,95179.59
2023-03-11T01:07:53.897Z,95172.41
2023-03-11T01:08:55.691Z,95160.00
2023-03-11T01:09:57.538Z,95176.91
2023-03-11T01:10:59.505Z,95165.66
2023-03-11T01:12:01.375Z,95169.13
2023-03-11T01:13:03.559Z,95177.94
2023-03-11T01:14:05.395Z,95192.91
2023-03-11T01:15:08.345Z,95185.41
2023-03-11T01:16:10.265Z,95173.03
2023-03-11T01:17:12.169Z,95170.03
2023-03-11T01:18:14.487Z,95157.50
2023-03-11T01:19:16.336Z,95162.47
2023-03-11T01:20:18.316Z,95168.44
2023-03-11T01:21:20.162Z,95166.84
2023-03-11T01:22:22.013Z,95169.22
2023-03-11T01:23:23.789Z,95180.81
2023-03-11T01:24:25.553Z,95176.84
2023-03-11T01:25:27.297Z,95182.81
2023-03-11T01:26:29.075Z,95178.09
2023-03-11T01:27:31.348Z,95161.41
2023-03-11T01:28:33.146Z,95150.91
2023-03-11T01:29:35.088Z,95142.78
2023-03-11T01:30:38.447Z,95168.25
2023-03-11T01:31:40.311Z,95181.78
2023-03-11T01:32:42.242Z,95198.56
2023-03-11T01:33:44.458Z,95191.56
2023-03-11T01:34:46.301Z,95179.97
2023-03-11T01:35:49.552Z,95219.28
2023-03-11T01:36:51.433Z,95229.06
2023-03-11T01:37:53.976Z,95208.63
2023-03-11T01:38:55.822Z,95191.13
2023-03-11T01:39:57.619Z,95172.78
2023-03-11T01:40:59.369Z,95174.03
2023-03-11T01:42:01.261Z,95181.38
2023-03-11T01:43:04.078Z,95191.06
2023-03-11T01:44:06.122Z,95194.25
2023-03-11T01:45:37.272Z,95186.59
2023-03-11T01:46:54.197Z,95182.34
2023-03-11T01:47:56.105Z,95192.91
2023-03-11T01:49:01.667Z,95203.94
2023-03-11T01:50:05.626Z,95195.81
2023-03-11T01:51:07.769Z,95185.44
2023-03-11T01:52:10.158Z,95186.88
2023-03-11T01:53:16.000Z,95202.88
2023-03-11T01:54:26.014Z,95212.66
2023-03-11T01:55:28.460Z,95203.16
2023-03-11T01:56:30.983Z,95187.25
2023-03-11T01:57:32.925Z,95203.22
2023-03-11T01:58:38.186Z,95189.06
2023-03-11T01:59:43.362Z,95189.06
2023-03-11T02:00:45.441Z,95218.19
2023-03-11T02:01:51.127Z,95227.06
2023-03-11T02:02:54.012Z,95208.16
2023-03-11T02:03:56.924Z,95224.69
2023-03-11T02:05:00.030Z,95249.41
2023-03-11T02:06:03.384Z,95243.03
2023-03-11T02:07:05.334Z,95219.78
2023-03-11T02:08:07.507Z,95218.63
2023-03-11T02:09:09.378Z,95238.75
2023-03-11T02:10:11.756Z,95230.56
2023-03-11T02:11:25.209Z,95226.25
2023-03-11T02:12:29.040Z,95242.19
2023-03-11T02:13:32.408Z,95243.00
2023-03-11T02:14:35.380Z,95243.19
2023-03-11T02:15:39.780Z,95264.53
2023-03-11T02:16:41.837Z,95242.63
2023-03-11T02:17:43.909Z,95262.16
2023-03-11T02:18:45.692Z,95274.91
2023-03-11T02:20:02.516Z,95277.31
2023-03-11T02:21:14.350Z,95292.03
2023-03-11T02:22:16.755Z,95293.22
2023-03-11T02:23:21.502Z,95292.38
2023-03-11T02:24:31.283Z,95285.75
2023-03-11T02:25:33.214Z,95281.56
2023-03-11T02:26:53.396Z,95282.72
2023-03-11T02:27:56.064Z,95269.75
2023-03-11T02:28:58.663Z,95244.50
2023-03-11T02:30:01.306Z,95238.53
2023-03-11T02:31:03.201Z,95291.50
2023-03-11T02:32:06.893Z,95273.88
2023-03-11T02:33:09.782Z,95249.38
2023-03-11T02:34:16.238Z,95250.63
2023-03-11T02:35:18.230Z,95269.34
2023-03-11T02:36:33.922Z,95292.47
2023-03-11T02:37:35.716Z,95295.47
2023-03-11T02:38:37.544Z,95295.06
2023-03-11T02:39:41.149Z,95281.13
2023-03-11T02:40:52.131Z,95290.88
2023-03-11T02:41:54.566Z,95292.47
2023-03-11T02:42:58.385Z,95294.63
2023-03-11T02:44:00.406Z,95314.53
2023-03-11T02:45:08.851Z,95313.38
2023-03-11T02:46:12.002Z,95317.72
2023-03-11T02:47:14.476Z,95299.81
2023-03-11T02:48:17.067Z,95301.41
2023-03-11T02:49:19.728Z,95299.22
2023-03-11T02:50:21.766Z,95311.56
2023-03-11T02:51:23.564Z,95289.50
2023-03-11T02:52:26.484Z,95285.91
2023-03-11T02:53:30.518Z,95267.59
2023-03-11T02:54:32.321Z,95291.88
2023-03-11T02:55:34.212Z,95305.41
2023-03-11T02:56:35.982Z,95332.84
2023-03-11T02:57:38.444Z,95342.97
2023-03-11T02:58:40.529Z,95342.34
2023-03-11T02:59:42.405Z,95326.44
2023-03-11T03:00:44.350Z,95318.09
2023-03-11T03:01:46.190Z,95310.91
2023-03-11T03:02:52.303Z,95325.41
2023-03-11T03:03:54.204Z,95348.28
2023-03-11T03:04:56.058Z,95326.19
2023-03-11T03:05:57.920Z,95345.53
2023-03-11T03:06:59.668Z,95346.88
2023-03-11T03:08:03.285Z,95345.94
2023-03-11T03:09:05.233Z,95346.97
2023-03-11T03:10:07.225Z,95328.72
2023-03-11T03:11:09.033Z,95332.53
2023-03-11T03:12:10.910Z,95338.88
2023-03-11T03:13:12.865Z,95342.06
2023-03-11T03:14:14.708Z,95330.53
2023-03-11T03:15:17.353Z,95338.56
2023-03-11T03:16:19.172Z,95339.78
2023-03-11T03:17:21.136Z,95359.09
2023-03-11T03:18:23.645Z,95362.66
2023-03-11T03:19:25.735Z,95365.28
2023-03-11T03:20:27.556Z,95383.56
2023-03-11T03:21:29.449Z,95378.97
2023-03-11T03:22:31.227Z,95354.09
2023-03-11T03:23:35.579Z,95329.88
2023-03-11T03:24:37.450Z,95344.16
2023-03-11T03:25:42.092Z,95363.44
2023-03-11T03:26:43.911Z,95362.66
2023-03-11T03:27:45.809Z,95367.25
2023-03-11T03:28:47.738Z,95367.06
2023-03-11T03:29:49.762Z,95363.28
2023-03-11T03:30:51.561Z,95356.91
2023-03-11T03:31:53.369Z,95377.41
2023-03-11T03:32:55.504Z,95393.06
2023-03-11T03:33:57.584Z,95390.69
2023-03-11T03:34:59.919Z,95382.94
2023-03-11T03:36:02.180Z,95368.66
2023-03-11T03:37:04.125Z,95365.25
2023-03-11T03:38:05.915Z,95382.34
2023-03-11T03:39:07.766Z,95375.59
2023-03-11T03:40:10.212Z,95393.31
2023-03-11T03:41:14.618Z,95395.50
2023-03-11T03:42:16.530Z,95397.06
2023-03-11T03:43:18.277Z,95399.09
2023-03-11T03:44:20.048Z,95406.63
2023-03-11T03:45:21.868Z,95400.50
2023-03-11T03:46:23.785Z,95387.59
2023-03-11T03:47:25.692Z,95395.75
2023-03-11T03:48:27.607Z,95382.59
2023-03-11T03:49:29.411Z,95374.66
2023-03-11T03:50:31.175Z,95383.41
2023-03-11T03:51:34.009Z,95394.31
2023-03-11T03:52:36.269Z,95387.78
2023-03-11T03:53:38.430Z,95376.84
2023-03-11T03:54:40.231Z,95396.31
2023-03-11T03:55:42.034Z,95406.44
2023-03-11T03:56:43.796Z,95421.34
2023-03-11T03:57:45.786Z,95405.25
2023-03-11T03:58:47.644Z,95379.81
2023-03-11T03:59:49.490Z,95386.00
2023-03-11T04:00:55.562Z,95395.53
2023-03-11T04:01:57.482Z,95398.69
2023-03-11T04:02:59.372Z,95387.97
2023-03-11T04:04:01.233Z,95385.59
2023-03-11T04:05:03.788Z,95372.06
2023-03-11T04:06:06.763Z,95373.84
2023-03-11T04:07:08.596Z,95369.28
2023-03-11T04:08:11.104Z,95379.63
2023-03-11T04:09:12.919Z,95403.88
2023-03-11T04:10:15.025Z,95402.47
2023-03-11T04:11:16.900Z,95403.25
2023-03-11T04:12:19.427Z,95414.16
2023-03-11T04:13:21.199Z,95407.41
2023-03-11T04:14:23.045Z,95404.44
2023-03-11T04:15:24.988Z,95410.19
2023-03-11T04:16:26.944Z,95416.56
2023-03-11T04:17:28.766Z,95412.16
2023-03-11T04:18:30.648Z,95404.22
2023-03-11T04:19:32.914Z,95424.09
2023-03-11T04:20:34.806Z,95433.66
2023-03-11T04:21:36.633Z,95436.03
2023-03-11T04:22:38.488Z,95425.28
2023-03-11T04:23:40.356Z,95402.63
2023-03-11T04:24:42.242Z,95412.19
2023-03-11T04:25:44.057Z,95418.72
2023-03-11T04:26:45.894Z,95418.34
2023-03-11T04:27:50.332Z,95420.13
2023-03-11T04:28:52.132Z,95416.31
2023-03-11T04:29:54.046Z,95425.47
2023-03-11T04:30:55.993Z,95435.81
2023-03-11T04:31:57.798Z,95421.31
2023-03-11T04:32:59.824Z,95438.03
2023-03-11T04:34:01.719Z,95447.75
2023-03-11T04:35:03.760Z,95446.16
2023-03-11T04:36:06.373Z,95423.72
2023-03-11T04:37:08.380Z,95427.28
2023-03-11T04:38:10.226Z,95415.56
2023-03-11T04:39:12.027Z,95418.75
2023-03-11T04:40:14.461Z,95425.69
2023-03-11T04:41:16.265Z,95443.38
2023-03-11T04:42:19.396Z,95440.97
2023-03-11T04:43:21.250Z,95430.06
2023-03-11T04:44:23.074Z,95434.06
2023-03-11T04:45:24.980Z,95435.03
2023-03-11T04:46:27.014Z,95423.72
2023-03-11T04:47:29.152Z,95427.91
2023-03-11T04:48:31.189Z,95446.16
2023-03-11T04:49:33.031Z,95445.94
2023-03-11T04:50:35.097Z,95440.81
2023-03-11T04:51:37.035Z,95434.81
2023-03-11T04:52:38.827Z,95422.31
2023-03-11T04:53:40.653Z,95427.47
2023-03-11T04:54:42.435Z,95425.31
2023-03-11T04:55:44.242Z,95407.03
2023-03-11T04:56:46.093Z,95415.38
2023-03-11T04:57:48.220Z,95432.25
2023-03-11T04:58:50.065Z,95437.44
2023-03-11T04:59:51.852Z,95429.88
2023-03-11T05:00:53.742Z,95433.06
2023-03-11T05:01:55.807Z,95444.19
2023-03-11T05:02:57.665Z,95451.75
2023-03-11T05:03:59.484Z,95445.97
2023-03-11T05:05:01.903Z,95430.66
2023-03-11T05:06:03.769Z,95442.19
2023-03-11T05:07:05.682Z,95434.63
2023-03-11T05:08:07.507Z,95450.13
2023-03-11T05:09:09.305Z,95447.75
2023-03-11T05:10:11.442Z,95446.75
2023-03-11T05:11:13.269Z,95445.56
2023-03-11T05:12:15.108Z,95445.38
2023-03-11T05:13:16.877Z,95431.66
2023-03-11T05:14:18.674Z,95450.53
2023-03-11T05:15:20.480Z,95458.47
2023-03-11T05:16:22.548Z,95454.72
2023-03-11T05:17:25.187Z,95457.28
2023-03-11T05:18:27.076Z,95480.13
2023-03-11T05:19:31.700Z,95508.13
2023-03-11T05:20:33.469Z,95488.06
2023-03-11T05:21:35.309Z,95476.53
2023-03-11T05:22:37.179Z,95464.81
2023-03-11T05:23:38.924Z,95452.69
2023-03-11T05:24:41.025Z,95453.91
2023-03-11T05:25:42.832Z,95470.16
2023-03-11T05:26:46.316Z,95470.75
2023-03-11T05:27:50.022Z,95449.91
2023-03-11T05:28:51.849Z,95416.56
2023-03-11T05:29:53.741Z,95421.75
2023-03-11T05:30:55.585Z,95461.03
2023-03-11T05:31:57.500Z,95464.59
2023-03-11T05:32:59.354Z,95453.50
2023-03-11T05:34:01.150Z,95480.25
2023-03-11T05:35:02.972Z,95488.78
2023-03-11T05:36:05.989Z,95490.38
2023-03-11T05:37:07.949Z,95486.63
2023-03-11T05:38:09.799Z,95470.13
2023-03-11T05:39:11.579Z,95512.03
2023-03-11T05:40:13.496Z,95497.34
2023-03-11T05:41:15.658Z,95459.41
2023-03-11T05:42:18.156Z,95459.41
2023-03-11T05:43:20.522Z,95442.13
2023-03-11T05:44:22.621Z,95460.59
2023-03-11T05:45:25.136Z,95471.31
2023-03-11T05:46:27.047Z,95475.72
2023-03-11T05:47:28.881Z,95452.69
2023-03-11T05:48:31.553Z,95445.56
2023-03-11T05:49:33.392Z,95445.75
2023-03-11T05:50:35.135Z,95449.72
2023-03-11T05:51:37.780Z,95477.72
2023-03-11T05:52:39.608Z,95477.72
2023-03-11T05:53:48.898Z,95472.75
2023-03-11T05:54:51.922Z,95475.34
2023-03-11T05:56:00.453Z,95461.41
2023-03-11T05:57:02.253Z,95465.41
2023-03-11T05:58:04.220Z,95462.63
2023-03-11T05:59:06.066Z,95467.41
2023-03-11T06:00:12.542Z,95478.31
2023-03-11T06:01:16.049Z,95482.09
2023-03-11T06:02:17.880Z,95474.72
2023-03-11T06:03:19.707Z,95482.09
2023-03-11T06:04:21.611Z,95506.72
2023-03-11T06:05:23.500Z,95508.31
2023-03-11T06:06:25.349Z,95491.81
2023-03-11T06:07:27.148Z,95467.81
2023-03-11T06:08:31.076Z,95463.84
2023-03-11T06:09:32.947Z,95450.94
2023-03-11T06:10:34.739Z,95481.28
2023-03-11T06:11:36.497Z,95504.72
2023-03-11T06:12:38.885Z,95479.28
2023-03-11T06:13:41.061Z,95483.66
2023-03-11T06:14:42.893Z,95462.44
2023-03-11T06:15:44.954Z,95479.88
2023-03-11T06:16:46.751Z,95480.63
2023-03-11T06:17:48.494Z,95496.34
2023-03-11T06:18:50.843Z,95496.72
2023-03-11T06:19:52.709Z,95495.75
2023-03-11T06:20:55.110Z,95508.66
2023-03-11T06:21:56.935Z,95503.06
2023-03-11T06:22:58.712Z,95499.72
2023-03-11T06:24:00.563Z,95507.50
2023-03-11T06:25:02.464Z,95521.78
2023-03-11T06:26:04.979Z,95517.03
2023-03-11T06:27:06.854Z,95511.88
2023-03-11T06:28:08.981Z,95503.34
2023-03-11T06:29:14.752Z,95524.78
2023-03-11T06:30:16.752Z,95532.16
2023-03-11T06:31:25.781Z,95531.56
2023-03-11T06:32:29.844Z,95534.75
2023-03-11T06:33:31.907Z,95553.78
2023-03-11T06:34:33.750Z,95557.75
2023-03-11T06:35:35.570Z,95533.72
2023-03-11T06:36:37.526Z,95529.94
2023-03-11T06:37:39.974Z,95551.59
2023-03-11T06:38:42.143Z,95551.19
2023-03-11T06:39:43.962Z,95524.78
2023-03-11T06:40:45.826Z,95536.50
2023-03-11T06:41:47.650Z,95550.00
2023-03-11T06:42:49.429Z,95552.22
2023-03-11T06:43:51.308Z,95554.78
2023-03-11T06:44:53.108Z,95551.19
2023-03-11T06:45:54.948Z,95573.66
2023-03-11T06:46:56.838Z,95575.88
2023-03-11T06:47:58.630Z,95570.69
2023-03-11T06:49:00.499Z,95561.56
2023-03-11T06:50:06.853Z,95551.66
2023-03-11T06:51:08.641Z,95552.44
2023-03-11T06:52:10.504Z,95572.09
2023-03-11T06:53:12.417Z,95576.28
2023-03-11T06:54:14.230Z,95564.75
2023-03-11T06:55:16.044Z,95554.22
2023-03-11T06:56:17.990Z,95554.84
2023-03-11T06:57:19.826Z,95578.25
2023-03-11T06:58:21.551Z,95590.19
2023-03-11T06:59:23.406Z,95593.94
2023-03-11T07:00:25.569Z,95583.63
2023-03-11T07:01:28.401Z,95595.34
2023-03-11T07:02:30.382Z,95587.19
2023-03-11T07:03:32.243Z,95572.31
2023-03-11T07:04:34.056Z,95586.19
2023-03-11T07:05:35.786Z,95600.13
2023-03-11T07:06:37.686Z,95599.34
2023-03-11T07:07:39.424Z,95575.09
2023-03-11T07:08:41.688Z,95587.63
2023-03-11T07:09:43.494Z,95582.84
2023-03-11T07:10:45.989Z,95567.16
2023-03-11T07:11:47.882Z,95580.06
2023-03-11T07:12:49.687Z,95590.81
2023-03-11T07:13:51.690Z,95599.16
2023-03-11T07:14:56.945Z,95607.09
2023-03-11T07:16:06.587Z,95579.47
2023-03-11T07:17:08.516Z,95589.41
2023-03-11T07:18:10.310Z,95594.22
2023-03-11T07:19:12.810Z,95599.56
2023-03-11T07:20:14.606Z,95601.53
2023-03-11T07:21:17.369Z,95583.88
2023-03-11T07:22:20.025Z,95584.28
2023-03-11T07:23:22.140Z,95580.88
2023-03-11T07:24:23.910Z,95597.72
2023-03-11T07:25:25.833Z,95588.59
2023-03-11T07:26:28.681Z,95589.78
2023-03-11T07:27:30.582Z,95606.91
2023-03-11T07:28:32.399Z,95619.22
2023-03-11T07:29:34.526Z,95621.25
2023-03-11T07:30:38.676Z,95606.53
2023-03-11T07:31:41.652Z,95610.13
2023-03-11T07:32:43.486Z,95616.28
2023-03-11T07:33:45.392Z,95639.72
2023-03-11T07:34:47.198Z,95633.97
2023-03-11T07:35:49.883Z,95618.44
2023-03-11T07:36:51.735Z,95614.44
2023-03-11T07:37:53.678Z,95619.59
2023-03-11T07:39:02.551Z,95621.41
2023-03-11T07:40:05.805Z,95610.09
2023-03-11T07:41:08.073Z,95611.69
2023-03-11T07:42:09.946Z,95601.75
2023-03-11T07:43:12.093Z,95592.19
2023-03-11T07:44:14.725Z,95598.16
2023-03-11T07:45:16.591Z,95608.88
2023-03-11T07:46:23.062Z,95611.28
2023-03-11T07:47:24.961Z,95604.94
2023-03-11T07:48:26.880Z,95597.59
2023-03-11T07:49:28.651Z,95604.34
2023-03-11T07:50:30.548Z,95599.38
2023-03-11T07:51:33.493Z,95604.34
2023-03-11T07:52:35.416Z,95626.03
2023-03-11T07:53:37.276Z,95624.03
2023-03-11T07:54:39.186Z,95622.47
2023-03-11T07:55:40.927Z,95616.88
2023-03-11T07:56:42.811Z,95611.13
2023-03-11T07:57:47.032Z,95629.00
2023-03-11T07:58:48.880Z,95635.19
2023-03-11T07:59:50.791Z,95633.78
2023-03-11T08:00:53.012Z,95631.00
2023-03-11T08:01:54.829Z,95637.56
2023-03-11T08:02:56.631Z,95628.81
2023-03-11T08:03:59.479Z,95622.03
2023-03-11T08:05:01.348Z,95633.19
2023-03-11T08:06:03.314Z,95650.50
2023-03-11T08:07:05.122Z,95664.22
2023-03-11T08:08:06.991Z,95638.34
2023-03-11T08:09:09.507Z,95614.84
2023-03-11T08:10:11.785Z,95631.19
2023-03-11T08:11:13.982Z,95638.75
2023-03-11T08:12:16.279Z,95634.59
2023-03-11T08:13:18.115Z,95630.00
2023-03-11T08:14:20.051Z,95621.28
2023-03-11T08:15:21.837Z,95628.41
2023-03-11T08:16:24.302Z,95636.75
2023-03-11T08:17:26.158Z,95640.94
2023-03-11T08:18:27.927Z,95640.72
2023-03-11T08:19:29.841Z,95634.38
2023-03-11T08:20:31.693Z,95624.25
2023-03-11T08:21:33.645Z,95627.63
2023-03-11T08:22:36.889Z,95616.50
2023-03-11T08:23:38.711Z,95627.03
2023-03-11T08:24:40.590Z,95622.03
2023-03-11T08:25:42.440Z,95629.41
2023-03-11T08:26:44.335Z,95621.25
2023-03-11T08:27:46.094Z,95606.13
2023-03-11T08:28:48.520Z,95621.66
2023-03-11T08:29:50.423Z,95621.66
2023-03-11T08:30:52.277Z,95649.66
2023-03-11T08:31:54.132Z,95639.94
2023-03-11T08:32:55.961Z,95632.38
2023-03-11T08:33:59.514Z,95623.03
2023-03-11T08:35:01.661Z,95613.88
2023-03-11T08:36:03.795Z,95621.25
2023-03-11T08:37:06.212Z,95637.97
2023-03-11T08:38:08.088Z,95634.56
2023-03-11T08:39:09.934Z,95631.56
2023-03-11T08:40:12.206Z,95626.16
2023-03-11T08:41:14.010Z,95631.34
2023-03-11T08:42:16.858Z,95638.69
2023-03-11T08:43:18.700Z,95627.16
2023-03-11T08:44:20.531Z,95626.78
2023-03-11T08:45:22.559Z,95639.91
2023-03-11T08:46:29.418Z,95646.25
2023-03-11T08:47:34.066Z,95646.06
2023-03-11T08:48:37.342Z,95645.88
2023-03-11T08:49:39.765Z,95651.84
2023-03-11T08:50:53.361Z,95654.63
2023-03-11T08:51:56.183Z,95653.41
2023-03-11T08:53:00.878Z,95655.41
2023-03-11T08:54:03.083Z,95662.16
2023-03-11T08:55:05.482Z,95658.38
2023-03-11T08:56:07.482Z,95670.50
2023-03-11T08:57:09.511Z,95666.50
2023-03-11T08:58:11.513Z,95665.28
2023-03-11T08:59:13.351Z,95666.06
2023-03-11T09:00:15.393Z,95673.63
2023-03-11T09:01:17.208Z,95682.38
2023-03-11T09:02:19.113Z,95680.19
2023-03-11T09:03:21.008Z,95696.47
2023-03-11T09:04:22.756Z,95677.34
2023-03-11T09:05:24.639Z,95690.91
2023-03-11T09:06:26.466Z,95682.13
2023-03-11T09:07:28.283Z,95686.72
2023-03-11T09:08:30.121Z,95668.03
2023-03-11T09:09:32.606Z,95677.06
2023-03-11T09:10:34.410Z,95688.38
2023-03-11T09:11:37.978Z,95685.59
2023-03-11T09:12:39.762Z,95702.09
2023-03-11T09:13:42.607Z,95718.56
2023-03-11T09:14:45.052Z,95710.81
2023-03-11T09:15:48.253Z,95672.31
2023-03-11T09:16:50.116Z,95691.03
2023-03-11T09:17:51.896Z,95683.44
2023-03-11T09:18:53.858Z,95669.25
2023-03-11T09:19:56.072Z,95658.09
2023-03-11T09:20:58.942Z,95682.19
2023-03-11T09:22:01.414Z,95689.75
2023-03-11T09:23:03.251Z,95701.28
2023-03-11T09:24:05.529Z,95668.75
2023-03-11T09:25:07.761Z,95665.13
2023-03-11T09:26:09.551Z,95667.56
2023-03-11T09:27:13.454Z,95684.38
2023-03-11T09:28:15.292Z,95682.19
2023-03-11T09:29:17.207Z,95694.72
2023-03-11T09:30:19.072Z,95710.94
2023-03-11T09:31:20.975Z,95709.53
2023-03-11T09:32:22.866Z,95706.50
2023-03-11T09:33:25.040Z,95697.75
2023-03-11T09:34:27.025Z,95703.47
2023-03-11T09:35:28.879Z,95706.03
2023-03-11T09:36:30.713Z,95708.81
2023-03-11T09:37:32.560Z,95710.38
2023-03-11T09:38:34.409Z,95707.72
2023-03-11T09:39:36.509Z,95717.16
2023-03-11T09:40:51.981Z,95712.84
2023-03-11T09:41:58.892Z,95699.75
2023-03-11T09:43:17.311Z,95693.63
2023-03-11T09:44:37.221Z,95705.41
2023-03-11T09:45:42.568Z,95709.97
2023-03-11T09:47:04.542Z,95724.91
2023-03-11T09:48:24.489Z,95721.31
2023-03-11T09:49:41.396Z,95719.91
2023-03-11T09:50:54.292Z,95720.50
2023-03-11T09:52:05.249Z,95718.50
2023-03-11T09:53:22.294Z,95727.28
2023-03-11T09:54:24.679Z,95726.31
2023-03-11T09:55:45.060Z,95722.50
2023-03-11T09:56:47.179Z,95713.31
2023-03-11T09:57:49.803Z,95715.72
2023-03-11T09:58:53.049Z,95715.31
2023-03-11T09:59:55.204Z,95723.91
2023-03-11T10:00:57.125Z,95730.91
2023-03-11T10:01:59.434Z,95719.75
2023-03-11T10:03:02.412Z,95729.09
2023-03-11T10:04:11.974Z,95731.75
2023-03-11T10:05:15.893Z,95700.66
2023-03-11T10:06:20.356Z,95730.94
2023-03-11T10:07:25.936Z,95731.75
2023-03-11T10:08:51.016Z,95733.53
2023-03-11T10:09:54.457Z,95738.09
2023-03-11T10:11:04.056Z,95738.91
2023-03-11T10:12:15.121Z,95744.31
2023-03-11T10:13:25.704Z,95742.13
2023-03-11T10:14:47.135Z,95734.72
2023-03-11T10:16:07.563Z,95745.03
2023-03-11T10:17:15.995Z,95758.81
2023-03-11T10:18:23.802Z,95736.88
2023-03-11T10:19:34.647Z,95740.84
2023-03-11T10:20:48.697Z,95740.88
2023-03-11T10:22:00.991Z,95750.19
2023-03-11T10:23:20.947Z,95764.38
2023-03-11T10:24:25.730Z,95766.34
2023-03-11T10:25:46.274Z,95768.25
2023-03-11T10:26:55.117Z,95761.41
2023-03-11T10:28:09.019Z,95766.13
2023-03-11T10:29:17.797Z,95748.91
2023-03-11T10:30:24.639Z,95750.28
2023-03-11T10:31:36.334Z,95751.25
2023-03-11T10:32:38.560Z,95768.56
2023-03-11T10:33:46.599Z,95751.72
2023-03-11T10:34:55.284Z,95746.63
2023-03-11T10:35:59.301Z,95754.09
2023-03-11T10:37:05.102Z,95759.19
2023-03-11T10:38:19.520Z,95753.13
2023-03-11T10:39:23.152Z,95743.19
2023-03-11T10:40:32.727Z,95737.84
2023-03-11T10:41:44.342Z,95733.97
2023-03-11T10:42:47.224Z,95749.84
2023-03-11T10:43:55.344Z,95746.41
2023-03-11T10:44:57.183Z,95745.94
2023-03-11T10:45:59.693Z,95751.53
2023-03-11T10:47:02.116Z,95743.72
2023-03-11T10:48:08.877Z,95743.94
2023-03-11T10:49:17.764Z,95765.09
2023-03-11T10:50:20.323Z,95766.81
2023-03-11T10:51:23.535Z,95747.94
2023-03-11T10:52:25.465Z,95748.00
2023-03-11T10:53:27.421Z,95747.94
2023-03-11T10:54:31.188Z,95748.25
2023-03-11T10:55:33.306Z,95741.91
2023-03-11T10:56:39.733Z,95754.00
2023-03-11T10:57:41.629Z,95751.91
2023-03-11T10:58:49.090Z,95758.69
2023-03-11T10:59:52.538Z,95764.13
2023-03-11T11:01:13.152Z,95771.78
2023-03-11T11:02:26.308Z,95746.84
2023-03-11T11:03:28.287Z,95731.66
2023-03-11T11:04:33.579Z,95745.84
2023-03-11T11:05:35.500Z,95752.03
2023-03-11T11:06:37.679Z,95740.72
2023-03-11T11:07:42.119Z,95748.66
2023-03-11T11:08:45.628Z,95743.81
2023-03-11T11:09:47.383Z,95753.84
2023-03-11T11:10:53.545Z,95743.66
2023-03-11T11:12:02.972Z,95743.44
2023-03-11T11:13:10.587Z,95742.66
2023-03-11T11:14:12.450Z,95742.78
2023-03-11T11:15:21.927Z,95737.00
2023-03-11T11:16:23.899Z,95736.88
2023-03-11T11:17:33.616Z,95747.09
2023-03-11T11:18:48.205Z,95740.84
2023-03-11T11:19:53.242Z,95725.78
2023-03-11T11:21:01.415Z,95731.09
2023-03-11T11:22:05.624Z,95735.75
2023-03-11T11:23:25.612Z,95733.50
2023-03-11T11:24:31.906Z,95749.59
2023-03-11T11:25:35.764Z,95733.50
2023-03-11T11:26:37.723Z,95750.59
2023-03-11T11:27:54.325Z,95739.50
2023-03-11T11:29:06.711Z,95732.13
2023-03-11T11:30:10.209Z,95737.66
2023-03-11T11:31:30.270Z,95748.56
2023-03-11T11:32:32.250Z,95746.53
2023-03-11T11:33:39.080Z,95751.94
2023-03-11T11:34:41.601Z,95733.72
2023-03-11T11:35:50.392Z,95737.22
2023-03-11T11:36:52.238Z,95742.31
2023-03-11T11:37:59.873Z,95751.81
2023-03-11T11:39:05.341Z,95750.53
2023-03-11T11:40:11.427Z,95741.56
2023-03-11T11:41:15.470Z,95741.44
2023-03-11T11:42:19.068Z,95738.38
2023-03-11T11:43:44.341Z,95737.63
2023-03-11T11:44:52.304Z,95729.97
2023-03-11T11:45:57.441Z,95731.75
2023-03-11T11:47:06.273Z,95728.44
2023-03-11T11:48:28.466Z,95731.69
2023-03-11T11:49:35.614Z,95739.19
2023-03-11T11:50:42.337Z,95731.44
2023-03-11T11:52:02.663Z,95726.00
2023-03-11T11:53:19.813Z,95724.56
2023-03-11T11:54:36.490Z,95728.50
2023-03-11T11:55:41.956Z,95731.13
2023-03-11T11:56:44.446Z,95729.22
2023-03-11T11:57:46.844Z,95723.69
2023-03-11T11:58:48.821Z,95716.47
2023-03-11T11:59:50.726Z,95723.84
2023-03-11T12:00:58.506Z,95728.84
2023-03-11T12:02:06.892Z,95743.72
2023-03-11T12:03:10.558Z,95743.47
2023-03-11T12:04:22.226Z,95739.34
2023-03-11T12:05:27.592Z,95733.75
2023-03-11T12:06:48.145Z,95728.66
2023-03-11T12:07:52.966Z,95712.72
2023-03-11T12:09:15.083Z,95734.53
2023-03-11T12:10:35.849Z,95736.91
2023-03-11T12:11:42.172Z,95747.06
2023-03-11T12:13:06.298Z,95750.66
2023-03-11T12:14:10.909Z,95746.78
2023-03-11T12:15:28.243Z,95736.56
2023-03-11T12:16:41.141Z,95737.22
2023-03-11T12:17:44.556Z,95743.81
2023-03-11T12:19:12.469Z,95746.97
2023-03-11T12:20:14.413Z,95721.47
2023-03-11T12:21:28.670Z,95717.63
2023-03-11T12:22:42.781Z,95730.72
2023-03-11T12:24:11.022Z,95740.72
2023-03-11T12:25:22.562Z,95730.94
2023-03-11T12:26:25.416Z,95732.19
2023-03-11T12:27:30.678Z,95733.75
2023-03-11T12:28:52.770Z,95717.63
2023-03-11T12:30:00.544Z,95742.34
2023-03-11T12:31:05.268Z,95757.19